createdAt,value
2023-03-22T00:02:33.206Z,70.93
2023-03-22T00:07:34.628Z,71.79
2023-03-22T00:12:35.994Z,70.66
2023-03-22T00:17:38.241Z,69.52
2023-03-22T00:22:39.757Z,68.61
2023-03-22T00:27:41.320Z,68.74
2023-03-22T00:32:42.646Z,69.73
2023-03-22T00:37:43.906Z,68.75
2023-03-22T00:42:45.272Z,68.57
2023-03-22T00:47:46.557Z,68.14
2023-03-22T00:52:47.784Z,67.02
2023-03-22T00:57:49.036Z,67.77
2023-03-22T01:02:53.292Z,67.40
2023-03-22T01:07:55.361Z,66.58
2023-03-22T01:12:57.038Z,66.05
2023-03-22T01:17:58.298Z,65.86
2023-03-22T01:22:59.684Z,66.68
2023-03-22T01:28:02.683Z,65.90
2023-03-22T01:33:13.617Z,66.12
2023-03-22T01:38:14.901Z,66.91
2023-03-22T01:43:17.125Z,67.35
2023-03-22T01:48:18.473Z,67.31
2023-03-22T01:53:23.608Z,67.66
2023-03-22T01:58:24.960Z,69.02
2023-03-22T02:03:26.216Z,68.60
2023-03-22T02:08:27.418Z,69.03
2023-03-22T02:13:28.738Z,69.06
2023-03-22T02:18:30.014Z,68.70
2023-03-22T02:23:31.308Z,68.11
2023-03-22T02:28:32.620Z,68.43
2023-03-22T02:33:33.902Z,70.92
2023-03-22T02:38:36.738Z,70.27
2023-03-22T02:43:38.926Z,69.32
2023-03-22T02:48:40.432Z,69.11
2023-03-22T02:53:41.675Z,69.97
2023-03-22T02:58:45.666Z,70.12
2023-03-22T03:03:48.104Z,70.59
2023-03-22T03:08:53.308Z,69.96
2023-03-22T03:13:54.677Z,70.92
2023-03-22T03:18:56.149Z,70.87
2023-03-22T03:23:57.882Z,70.57
2023-03-22T03:28:59.149Z,70.73
2023-03-22T03:34:00.575Z,70.10
2023-03-22T03:39:01.771Z,69.80
2023-03-22T03:44:03.010Z,71.11
2023-03-22T03:49:04.261Z,71.23
2023-03-22T03:54:05.534Z,72.27
2023-03-22T03:59:08.553Z,72.02
2023-03-22T04:04:10.250Z,70.88
2023-03-22T04:09:12.143Z,71.41
2023-03-22T04:14:13.445Z,70.93
2023-03-22T04:19:14.746Z,70.43
2023-03-22T04:24:16.101Z,69.45
2023-03-22T04:29:17.353Z,69.84
2023-03-22T04:34:18.631Z,69.43
2023-03-22T04:39:19.979Z,68.98
2023-03-22T04:44:22.703Z,70.08
2023-03-22T04:49:23.964Z,71.08
2023-03-22T04:54:25.785Z,70.88
2023-03-22T04:59:27.072Z,69.84
2023-03-22T05:04:28.516Z,70.50
2023-03-22T05:09:29.796Z,70.41
2023-03-22T05:14:31.254Z,70.62
2023-03-22T05:19:33.142Z,71.57
2023-03-22T05:24:34.436Z,71.38
2023-03-22T05:29:37.104Z,72.91
2023-03-22T05:34:38.920Z,73.22
2023-03-22T05:39:40.335Z,72.40
2023-03-22T05:44:41.675Z,72.63
2023-03-22T05:49:43.000Z,73.02
2023-03-22T05:54:44.322Z,73.34
2023-03-22T05:59:45.686Z,73.41
2023-03-22T06:04:46.988Z,72.68
2023-03-22T06:09:49.551Z,74.12
2023-03-22T06:14:50.859Z,73.91
2023-03-22T06:19:53.277Z,74.78
2023-03-22T06:24:54.606Z,73.92
2023-03-22T06:29:55.898Z,73.95
2023-03-22T06:34:57.246Z,75.14
2023-03-22T06:39:58.609Z,75.48
2023-03-22T06:44:59.904Z,74.76
2023-03-22T06:50:01.171Z,76.23
2023-03-22T06:55:02.966Z,75.70
2023-03-22T07:00:05.461Z,74.33
2023-03-22T07:05:06.726Z,73.17
2023-03-22T07:10:08.031Z,73.01
2023-03-22T07:15:09.302Z,72.00
2023-03-22T07:20:10.923Z,71.43
2023-03-22T07:25:12.194Z,72.23
2023-03-22T07:30:13.480Z,72.34
2023-03-22T07:35:17.020Z,71.13
2023-03-22T07:40:19.683Z,69.91
2023-03-22T07:45:21.004Z,68.57
2023-03-22T07:50:22.297Z,68.95
2023-03-22T07:55:25.700Z,68.12
2023-03-22T08:00:27.107Z,68.15
2023-03-22T08:05:28.378Z,67.95
2023-03-22T08:10:31.663Z,67.16
2023-03-22T08:15:34.182Z,66.17
2023-03-22T08:20:35.442Z,64.95
2023-03-22T08:25:37.483Z,63.78
2023-03-22T08:30:39.792Z,63.64
2023-03-22T08:35:41.689Z,61.20
2023-03-22T08:40:44.299Z,60.62
2023-03-22T08:45:45.800Z,60.73
2023-03-22T08:50:47.246Z,58.84
2023-03-22T08:55:48.533Z,57.46
2023-03-22T09:00:50.033Z,56.65
2023-03-22T09:05:51.469Z,55.56
2023-03-22T09:10:52.708Z,55.65
2023-03-22T09:15:53.963Z,55.90
2023-03-22T09:20:55.480Z,53.33
2023-03-22T09:25:57.165Z,53.39
2023-03-22T09:30:58.600Z,52.52
2023-03-22T09:35:59.986Z,50.83
2023-03-22T09:41:02.201Z,48.83
2023-03-22T09:46:03.812Z,45.85
2023-03-22T09:51:05.369Z,45.75
2023-03-22T09:56:06.587Z,45.31
2023-03-22T10:01:07.953Z,45.15
2023-03-22T10:06:09.280Z,44.84
2023-03-22T10:11:10.644Z,44.58
2023-03-22T10:16:12.016Z,44.13
2023-03-22T10:21:13.315Z,44.05
2023-03-22T10:26:14.623Z,43.57
2023-03-22T10:31:16.351Z,42.16
2023-03-22T10:36:18.385Z,41.78
2023-03-22T10:41:19.778Z,41.20
2023-03-22T10:46:21.216Z,40.04
2023-03-22T10:51:22.714Z,39.70
2023-03-22T10:56:24.032Z,38.79
2023-03-22T11:01:26.031Z,38.30
2023-03-22T11:11:48.735Z,39.40
2023-03-22T11:16:50.091Z,38.00
2023-03-22T11:21:51.404Z,40.02
2023-03-22T11:26:52.634Z,38.03
2023-03-22T11:31:55.940Z,36.57
2023-03-22T11:36:57.856Z,36.10
2023-03-22T11:42:01.392Z,36.08
2023-03-22T11:47:02.912Z,36.26
2023-03-22T11:52:05.352Z,37.99
2023-03-22T11:57:06.661Z,35.00
2023-03-22T12:02:07.955Z,35.18
2023-03-22T12:07:09.215Z,33.34
2023-03-22T12:12:10.598Z,37.48
2023-03-22T12:17:11.865Z,35.95
2023-03-22T12:22:13.099Z,35.53
2023-03-22T12:27:14.329Z,34.03
2023-03-22T12:32:15.899Z,33.06
2023-03-22T12:37:17.307Z,33.18
2023-03-22T12:42:18.649Z,33.42
2023-03-22T12:47:19.924Z,32.54
2023-03-22T12:52:22.706Z,31.88
2023-03-22T12:57:23.999Z,33.13
2023-03-22T13:02:25.428Z,33.16
2023-03-22T13:07:27.032Z,33.41
2023-03-22T13:12:28.681Z,32.17
2023-03-22T13:17:30.042Z,32.18
2023-03-22T13:22:31.348Z,30.57
2023-03-22T13:27:35.490Z,31.25
2023-03-22T13:32:37.853Z,30.85
2023-03-22T13:37:39.518Z,30.68
2023-03-22T13:42:41.010Z,30.73
2023-03-22T13:47:44.617Z,31.81
2023-03-22T13:52:46.166Z,30.68
2023-03-22T13:57:47.640Z,30.64
2023-03-22T14:02:49.017Z,31.26
2023-03-22T14:07:50.936Z,31.61
2023-03-22T14:12:52.185Z,32.60
2023-03-22T14:17:54.145Z,30.15
